Time;durP1;ratioP1;P1;durP2;ratioP2;P2;SDS_P1;SDS_P2;PMS_P1;PMS_P2;Temp;Humidity;BMP_temperature;BMP_pressure;BME280_temperature;BME280_humidity;BME280_pressure;Samples;Min_cycle;Max_cycle;Signal;HPM_P1;HPM_P2
2023/04/02 00:03:40;;;;;;;1.20;0.60;;;10.30;97.30;;;8.68;74.51;99056.53;10470359;27;96481;-81
2023/04/02 00:08:44;;;;;;;1.63;0.57;;;10.20;97.50;;;8.55;75.10;99062.47;10445184;27;96505;-80
2023/04/02 00:13:47;;;;;;;1.13;0.50;;;10.00;97.90;;;8.48;75.41;99058.09;10431773;27;96610;-81
2023/04/02 00:18:55;;;;;;;1.33;0.50;;;9.90;98.40;;;8.44;75.98;99062.09;10443963;27;96617;-81
2023/04/02 00:24:12;;;;;;;1.10;0.50;;;9.90;98.70;;;8.35;76.55;99056.06;10481961;27;96770;-82
2023/04/02 00:29:17;;;;;;;6.03;0.80;;;9.80;99.10;;;8.30;77.11;99067.19;10479661;27;96648;-81
2023/04/02 00:34:35;;;;;;;1.23;0.80;;;9.80;99.60;;;8.27;77.59;99067.53;10494874;27;96561;-81
2023/04/02 00:39:41;;;;;;;1.07;0.60;;;9.70;99.90;;;8.27;77.93;99074.63;10444371;27;97564;-82
2023/04/02 00:44:47;;;;;;;1.13;0.60;;;9.70;99.90;;;8.29;78.31;99081.41;10466323;27;96680;-81
2023/04/02 00:50:17;;;;;;;1.03;0.60;;;9.70;99.90;;;8.29;78.29;99078.78;10479147;27;96587;-81
2023/04/02 00:55:33;;;;;;;0.73;0.60;;;9.70;99.90;;;8.27;78.51;99075.47;10501006;27;96702;-81
2023/04/02 01:00:37;;;;;;;0.63;0.50;;;9.80;99.90;;;8.27;78.44;99078.09;10475834;27;96478;-81
2023/04/02 01:05:44;;;;;;;1.10;0.60;;;9.70;99.90;;;8.26;78.85;99075.66;10476590;27;96441;-81
2023/04/02 01:11:18;;;;;;;1.40;0.77;;;9.70;99.90;;;8.24;79.01;99088.25;10460980;27;97484;-82
2023/04/02 01:16:30;;;;;;;0.87;0.50;;;9.70;99.90;;;8.25;78.73;99084.59;10478949;27;97270;-82
2023/04/02 01:22:02;;;;;;;1.73;0.60;;;9.70;99.90;;;8.25;78.73;99090.72;10485147;27;98404;-81
2023/04/02 01:27:16;;;;;;;0.93;0.57;;;9.70;99.90;;;8.24;78.69;99088.25;10492068;27;96587;-81
2023/04/02 01:32:22;;;;;;;1.30;0.70;;;9.70;99.90;;;8.19;79.05;99091.44;10480487;27;96570;-81
2023/04/02 01:38:20;;;;;;;1.30;0.90;;;9.60;99.90;;;8.13;79.60;99100.09;10475623;27;96454;-81
2023/04/02 01:43:56;;;;;;;0.87;0.67;;;9.60;99.90;;;8.07;79.78;99092.84;10455046;27;97744;-81
2023/04/02 01:49:08;;;;;;;1.80;0.60;;;9.60;99.90;;;8.08;79.97;99091.03;10476729;27;96514;-81
2023/04/02 01:54:15;;;;;;;1.20;0.60;;;9.50;99.90;;;8.13;79.72;99097.44;10485021;27;96624;-81
2023/04/02 01:59:21;;;;;;;1.37;0.87;;;9.60;99.90;;;8.08;79.86;99099.78;10485415;27;98293;-81
2023/04/02 02:04:24;;;;;;;1.40;0.90;;;9.60;99.90;;;8.06;79.97;99104.44;10483947;27;96556;-81
2023/04/02 02:09:31;;;;;;;1.30;0.70;;;9.50;99.90;;;8.07;80.24;99108.72;10481173;27;98515;-81
2023/04/02 02:14:35;;;;;;;1.03;0.90;;;9.50;99.90;;;8.15;80.37;99100.72;10462141;27;98077;-81
2023/04/02 02:19:51;;;;;;;1.10;0.70;;;9.60;99.90;;;8.24;79.99;99110.25;10458862;27;96802;-81
2023/04/02 02:25:01;;;;;;;1.50;0.80;;;9.70;99.90;;;8.35;79.53;99116.13;10478000;27;97212;-82
2023/04/02 02:30:22;;;;;;;1.03;0.53;;;9.80;99.90;;;8.37;79.51;99119.44;10515216;27;96764;-82
2023/04/02 02:35:51;;;;;;;1.70;0.80;;;9.80;99.90;;;8.37;79.74;99117.59;10510110;27;96623;-81
2023/04/02 02:41:05;;;;;;;1.20;0.90;;;9.80;99.90;;;8.35;79.73;99118.75;10501724;27;96479;-81
2023/04/02 02:46:16;;;;;;;1.30;0.80;;;9.80;99.90;;;8.38;79.69;99132.47;10494213;27;97056;-81
2023/04/02 02:52:18;;;;;;;1.17;0.90;;;9.80;99.90;;;8.39;79.64;99122.69;10498825;27;96695;-81
2023/04/02 02:57:29;;;;;;;1.23;1.00;;;9.80;99.90;;;8.36;79.72;99117.78;10518953;27;98380;-81
2023/04/02 03:02:38;;;;;;;2.42;1.40;;;9.80;99.90;;;8.31;79.92;99120.94;10492522;27;98527;-81
2023/04/02 03:07:41;;;;;;;0.80;0.80;;;9.80;99.90;;;8.26;79.86;99118.81;10496040;27;97715;-81
2023/04/02 03:13:11;;;;;;;1.33;1.03;;;9.70;99.90;;;8.21;80.40;99115.88;10484207;27;97393;-81
2023/04/02 03:18:21;;;;;;;2.10;1.10;;;9.70;99.90;;;8.15;80.61;99121.88;10510095;27;96520;-81
2023/04/02 03:23:50;;;;;;;2.38;1.70;;;9.60;99.90;;;8.08;80.67;99126.25;10478247;27;97349;-80
2023/04/02 03:29:22;;;;;;;1.73;1.60;;;9.60;99.90;;;8.07;81.35;99121.97;10487664;27;98721;-81
2023/04/02 03:34:42;;;;;;;1.95;1.55;;;9.50;99.90;;;8.16;81.34;99120.91;10468323;27;96613;-81
2023/04/02 03:40:01;;;;;;;1.90;1.50;;;9.60;99.90;;;8.22;81.12;99122.84;10488734;27;96936;-81
2023/04/02 03:45:24;;;;;;;1.47;1.33;;;9.70;99.90;;;8.27;80.86;99125.75;10494627;27;96725;-82
2023/04/02 03:50:27;;;;;;;1.77;1.40;;;9.70;99.90;;;8.28;80.99;99131.91;10488206;27;96519;-81
2023/04/02 03:55:35;;;;;;;1.80;1.30;;;9.70;99.90;;;8.25;80.55;99121.66;10490588;27;96674;-78
2023/04/02 04:01:07;;;;;;;1.83;1.10;;;9.70;99.90;;;8.29;80.52;99131.69;10510910;27;98271;-78
2023/04/02 04:06:26;;;;;;;1.73;1.37;;;9.70;99.90;;;8.28;80.39;99145.13;10503861;27;97493;-79
2023/04/02 04:11:48;;;;;;;1.43;1.17;;;9.70;99.90;;;8.27;80.55;99157.50;10492256;27;96770;-79
2023/04/02 04:17:03;;;;;;;1.40;1.30;;;9.70;99.90;;;8.31;80.32;99164.09;10474597;27;96435;-79
2023/04/02 04:22:32;;;;;;;1.90;1.10;;;9.70;99.90;;;8.32;80.11;99162.28;10518582;27;98524;-80
2023/04/02 04:28:06;;;;;;;1.60;1.20;;;9.80;99.90;;;8.33;79.96;99161.28;10461573;27;96581;-79
2023/04/02 04:33:21;;;;;;;1.37;1.10;;;9.80;99.90;;;8.35;79.82;99159.28;10480481;27;96837;-79
2023/04/02 04:38:34;;;;;;;1.60;0.90;;;9.80;99.90;;;8.44;79.57;99160.06;10487897;27;97896;-79
2023/04/02 04:43:53;;;;;;;1.47;0.93;;;9.80;99.90;;;8.59;78.44;99168.88;10509221;27;96483;-79
2023/04/02 04:49:26;;;;;;;1.17;0.70;;;10.00;99.90;;;8.73;77.96;99161.94;10521620;27;96560;-79
2023/04/02 04:54:29;;;;;;;1.40;0.80;;;10.10;99.90;;;8.76;77.69;99167.69;10491661;27;97267;-79
2023/04/02 04:59:48;;;;;;;1.27;0.80;;;10.20;99.90;;;8.75;77.97;99163.38;10485296;27;98476;-79
2023/04/02 05:04:52;;;;;;;1.17;0.70;;;10.20;99.90;;;8.80;77.90;99166.31;10499262;27;97311;-79
2023/04/02 05:10:36;;;;;;;2.47;1.00;;;10.20;99.90;;;8.88;77.67;99165.44;10474458;27;98626;-79
2023/04/02 05:16:00;;;;;;;2.10;1.00;;;10.30;99.90;;;8.90;77.64;99165.25;10355398;28;98320;-79
2023/04/02 05:21:32;;;;;;;1.40;0.83;;;10.30;99.90;;;8.94;77.57;99170.00;10448489;27;98085;-79
2023/04/02 05:26:46;;;;;;;1.77;1.00;;;10.30;99.90;;;9.03;77.54;99168.06;10497886;27;96553;-79
2023/04/02 05:32:02;;;;;;;1.40;0.90;;;10.40;99.90;;;9.17;77.14;99184.97;10478551;27;96910;-78
2023/04/02 05:37:12;;;;;;;1.90;1.00;;;10.50;99.90;;;9.33;76.60;99185.59;10492432;27;97414;-78
2023/04/02 05:42:23;;;;;;;1.70;1.00;;;10.70;99.90;;;9.52;75.32;99178.91;10496438;27;98356;-79
2023/04/02 05:47:30;;;;;;;3.95;0.82;;;10.90;99.90;;;9.75;74.68;99184.06;10495550;27;96508;-79
2023/04/02 05:52:44;;;;;;;1.30;0.80;;;11.00;99.90;;;9.96;74.21;99185.94;10509207;27;98111;-79
2023/04/02 05:57:59;;;;;;;1.40;0.87;;;11.20;99.90;;;10.22;73.15;99195.16;10493723;27;98718;-82
2023/04/02 06:04:09;;;;;;;1.97;1.00;;;11.50;99.90;;;10.38;71.63;99185.16;10486684;27;98686;-82
2023/04/02 06:09:34;;;;;;;1.43;0.90;;;11.70;99.90;;;10.41;71.12;99199.84;10501124;27;97276;-81
2023/04/02 06:14:37;;;;;;;1.33;0.90;;;11.70;99.90;;;10.39;71.31;99212.53;10511269;27;98795;-79
2023/04/02 06:19:41;;;;;;;1.40;0.90;;;11.70;99.90;;;10.41;71.31;99207.81;10477085;27;96642;-79
2023/04/02 06:24:47;;;;;;;1.83;1.00;;;11.70;99.90;;;10.60;71.39;99207.16;10499579;27;97411;-79
2023/04/02 06:29:56;;;;;;;1.20;0.80;;;11.90;99.90;;;10.86;70.79;99203.91;10467126;27;98255;-80
2023/04/02 06:35:00;;;;;;;1.37;0.90;;;12.10;99.90;;;11.10;69.17;99215.94;10489861;27;98678;-84
2023/04/02 06:40:13;;;;;;;4.40;1.20;;;12.40;99.20;;;11.30;67.97;99212.56;10500243;27;98059;-84
2023/04/02 06:45:27;;;;;;;1.67;0.83;;;12.60;98.50;;;11.46;67.72;99213.06;10523655;27;96538;-83
2023/04/02 06:50:40;;;;;;;1.43;0.80;;;12.70;98.50;;;11.67;66.63;99221.94;10478430;27;96552;-77
2023/04/02 06:56:04;;;;;;;1.63;0.93;;;12.90;97.90;;;11.86;66.29;99220.41;10514285;27;97540;-79
2023/04/02 07:01:18;;;;;;;2.30;1.20;;;13.10;97.60;;;11.85;65.04;99221.41;10514121;27;96518;-77
2023/04/02 07:06:22;;;;;;;1.63;1.00;;;13.20;96.80;;;11.94;65.22;99229.03;10485066;27;96587;-77
2023/04/02 07:11:25;;;;;;;2.33;1.10;;;13.20;96.80;;;11.99;64.19;99242.56;10529948;27;96580;-78
2023/04/02 07:16:31;;;;;;;1.77;1.23;;;13.30;96.40;;;12.11;64.44;99239.31;10506241;27;97694;-77
2023/04/02 07:21:34;;;;;;;1.30;1.00;;;13.30;96.40;;;12.15;64.09;99252.03;10505286;27;97315;-80
2023/04/02 07:26:37;;;;;;;1.30;1.00;;;13.40;96.00;;;12.21;63.77;99255.72;10469060;27;98442;-82
2023/04/02 07:31:41;;;;;;;1.27;0.98;;;13.40;96.00;;;12.30;64.09;99257.19;10485056;27;96957;-82
2023/04/02 07:36:44;;;;;;;1.40;0.80;;;13.50;95.90;;;12.50;63.78;99260.72;10486637;27;96595;-82
2023/04/02 07:42:00;;;;;;;1.70;1.00;;;13.70;96.00;;;12.64;63.50;99271.38;10479611;27;97362;-87
2023/04/02 07:47:03;;;;;;;2.45;1.30;;;13.80;95.60;;;12.81;62.72;99272.63;10512988;27;97841;-84
2023/04/02 07:52:06;;;;;;;1.05;0.80;;;14.00;95.30;;;13.08;62.83;99271.59;10486175;27;97434;-81
2023/04/02 07:57:09;;;;;;;1.83;0.82;;;14.20;95.10;;;13.76;61.80;99265.13;10499521;27;96994;-78
2023/04/02 08:02:21;;;;;;;1.60;1.00;;;14.60;94.90;;;14.56;58.47;99270.88;10523803;27;99020;-80
2023/04/02 08:07:26;;;;;;;1.58;1.17;;;15.20;93.90;;;14.72;56.57;99268.50;10503276;27;97292;-83
2023/04/02 08:12:30;;;;;;;1.90;1.33;;;15.50;92.60;;;14.89;57.03;99270.66;10502478;27;97280;-81
2023/04/02 08:17:33;;;;;;;1.55;1.17;;;15.70;92.50;;;15.21;56.03;99266.84;10505323;27;97516;-82
2023/04/02 08:22:36;;;;;;;1.80;1.30;;;16.00;92.00;;;15.38;54.64;99271.66;10471207;27;96641;-82
2023/04/02 08:27:39;;;;;;;1.75;1.20;;;16.20;90.80;;;15.45;55.79;99275.06;10440112;27;97293;-82
2023/04/02 08:32:42;;;;;;;2.10;1.20;;;16.30;90.90;;;15.85;54.36;99274.66;10477163;27;96619;-82
2023/04/02 08:37:45;;;;;;;2.13;1.40;;;16.50;90.70;;;15.50;53.84;99284.06;10433372;27;96598;-82
2023/04/02 08:43:23;;;;;;;2.10;1.10;;;16.50;88.50;;;15.22;55.60;99287.22;10454665;27;96522;-82
2023/04/02 08:48:30;;;;;;;2.15;1.23;;;16.30;89.60;;;14.99;55.40;99301.22;10475442;27;96737;-82
2023/04/02 08:53:38;;;;;;;1.75;1.15;;;16.20;89.30;;;14.64;56.31;99302.72;10440868;27;97002;-83
2023/04/02 08:58:42;;;;;;;1.75;1.23;;;15.90;89.50;;;14.43;57.77;99309.19;10457895;27;96611;-83
2023/04/02 09:03:48;;;;;;;1.77;1.20;;;15.80;90.20;;;14.35;58.04;99298.75;10471631;27;97516;-83
2023/04/02 09:08:53;;;;;;;1.40;1.10;;;15.60;90.40;;;14.22;58.69;99307.66;10448348;27;97287;-83
2023/04/02 09:14:00;;;;;;;2.95;1.20;;;15.60;90.50;;;14.01;60.08;99311.44;10438098;27;96769;-82
2023/04/02 09:19:32;;;;;;;1.88;1.25;;;15.40;90.90;;;13.87;61.33;99313.34;10446875;27;98536;-84
2023/04/02 09:24:36;;;;;;;;;;;15.30;91.40;;;14.01;59.92;99321.31;10447945;27;96668;-81
2023/04/02 09:29:44;;;;;;;3.47;1.42;;;15.40;91.10;;;14.13;60.33;99325.78;10472404;27;96866;-81
2023/04/02 09:34:47;;;;;;;3.17;1.50;;;15.50;91.40;;;14.26;59.36;99329.41;10459757;27;96537;-84
2023/04/02 09:39:50;;;;;;;2.17;1.30;;;15.60;90.80;;;14.37;58.45;99331.41;10437333;27;97344;-81
2023/04/02 09:45:21;;;;;;;2.20;1.20;;;15.70;90.50;;;14.69;58.23;99340.31;10466866;27;96565;-77
2023/04/02 09:50:33;;;;;;;2.85;1.30;;;15.90;90.40;;;14.63;56.50;99336.66;10443698;27;96730;-78
2023/04/02 09:55:36;;;;;;;2.28;1.38;;;15.90;89.00;;;14.60;56.81;99341.63;10465474;27;96491;-78
2023/04/02 10:00:52;;;;;;;1.90;1.45;;;15.90;88.80;;;14.76;57.59;99334.94;10469505;27;96823;-79
2023/04/02 10:06:14;;;;;;;2.20;1.55;;;16.00;89.80;;;14.88;56.41;99341.25;10458903;27;96559;-79
2023/04/02 10:11:33;;;;;;;2.65;1.40;;;16.10;88.80;;;14.96;56.79;99340.97;10432761;27;96411;-78
2023/04/02 10:16:56;;;;;;;2.20;1.67;;;16.20;88.90;;;15.20;56.72;99342.00;10442132;27;96826;-79
2023/04/02 10:22:11;;;;;;;1.98;1.38;;;16.40;88.50;;;15.54;54.92;99335.34;10476447;27;98114;-78
2023/04/02 10:27:43;;;;;;;1.98;1.30;;;16.70;86.80;;;15.68;52.98;99328.81;10470517;27;97203;-79
2023/04/02 10:33:07;;;;;;;2.83;1.75;;;16.90;85.40;;;15.64;53.47;99326.81;10478299;27;98813;-79
2023/04/02 10:38:18;;;;;;;2.30;1.70;;;16.90;83.70;;;15.78;53.02;99336.34;10480906;27;96965;-79
2023/04/02 10:43:47;;;;;;;2.33;1.58;;;17.00;83.60;;;15.86;52.56;99332.56;10518645;27;96600;-80
2023/04/02 10:49:12;;;;;;;2.38;1.40;;;17.10;82.20;;;15.97;51.58;99332.63;10510995;27;96643;-80
2023/04/02 10:54:58;;;;;;;2.47;1.73;;;17.30;81.00;;;16.36;51.31;99332.34;10519410;27;97119;-80
2023/04/02 11:00:11;;;;;;;2.15;1.35;;;17.60;80.80;;;16.73;51.22;99325.06;10501069;27;96641;-81
2023/04/02 11:05:42;;;;;;;2.45;1.42;;;18.00;81.10;;;17.36;48.93;99322.59;10528600;27;97593;-82
2023/04/02 11:11:13;;;;;;;2.95;1.30;;;18.60;77.20;;;17.63;47.26;99319.41;10530481;27;96534;-81
2023/04/02 11:16:17;;;;;;;1.90;1.13;;;18.90;74.50;;;17.42;46.66;99318.16;10498392;27;98593;-81
2023/04/02 11:21:58;;;;;;;1.50;1.00;;;18.70;74.30;;;17.26;47.33;99319.66;10507971;27;96966;-81
2023/04/02 11:27:32;;;;;;;1.45;1.00;;;18.50;73.40;;;16.68;48.02;99320.38;10475839;27;96702;-81
2023/04/02 11:32:41;;;;;;;2.50;1.02;;;18.10;73.80;;;16.29;48.65;99306.44;10515929;27;96765;-81
2023/04/02 11:37:47;;;;;;;1.53;1.07;;;17.80;73.80;;;16.98;48.59;99303.44;10489825;27;96705;-81
2023/04/02 11:42:51;;;;;;;2.15;0.80;;;18.30;75.30;;;17.43;45.88;99292.94;10471534;27;96828;-82
2023/04/02 11:48:00;;;;;;;1.30;0.60;;;18.90;72.10;;;18.11;45.07;99296.81;10478013;27;96842;-82
2023/04/02 11:53:39;;;;;;;1.42;1.00;;;19.50;70.70;;;18.88;44.94;99286.41;10489822;27;98411;-82
2023/04/02 11:58:58;;;;;;;1.40;1.00;;;20.40;70.60;;;19.24;44.33;99312.03;10509494;27;96691;-82
2023/04/02 12:04:31;;;;;;;1.98;0.85;;;21.00;67.50;;;18.85;42.61;99303.06;10504721;27;98062;-81
2023/04/02 12:09:59;;;;;;;1.90;1.10;;;20.70;65.10;;;17.81;44.63;99299.69;10516412;27;96773;-80
2023/04/02 12:15:26;;;;;;;1.63;1.00;;;19.50;66.20;;;17.46;46.75;99297.03;10495451;27;96723;-82
2023/04/02 12:20:30;;;;;;;2.30;0.90;;;19.10;68.80;;;17.43;45.84;99292.94;10508187;27;96602;-81
2023/04/02 12:25:39;;;;;;;1.65;1.00;;;19.20;67.80;;;17.06;46.19;99297.72;10472064;27;97622;-80
2023/04/02 12:30:44;;;;;;;1.67;1.30;;;18.80;67.50;;;16.52;48.54;99296.88;10508095;27;97559;-81
2023/04/02 12:35:56;;;;;;;2.00;1.30;;;18.10;69.80;;;16.26;49.81;99296.19;10483945;27;96577;-78
2023/04/02 12:41:03;;;;;;;1.25;0.95;;;17.80;71.60;;;16.21;48.87;99274.59;10493931;27;97316;-79
2023/04/02 12:46:08;;;;;;;1.40;1.10;;;17.70;71.20;;;16.73;49.11;99276.75;10487785;27;96559;-81
2023/04/02 12:51:11;;;;;;;2.35;0.95;;;18.40;71.40;;;17.41;46.68;99272.75;10474455;27;98342;-84
2023/04/02 12:56:20;;;;;;;0.70;0.50;;;19.20;69.40;;;17.73;44.06;99262.44;10506511;27;98559;-81
2023/04/02 13:01:27;;;;;;;1.77;1.00;;;19.60;65.10;;;18.24;45.31;99264.28;10520926;27;97404;-81
2023/04/02 13:06:31;;;;;;;0.93;0.50;;;20.10;66.30;;;18.70;42.33;99270.50;10515716;27;97041;-81
2023/04/02 13:11:40;;;;;;;1.00;0.52;;;20.60;63.40;;;18.44;41.11;99266.53;10497079;27;96653;-83
2023/04/02 13:16:43;;;;;;;2.10;0.80;;;20.40;60.80;;;18.21;43.41;99272.00;10478166;27;96658;-80
2023/04/02 13:21:46;;;;;;;1.33;0.60;;;20.10;62.40;;;17.98;43.14;99265.66;10477066;27;96437;-81
2023/04/02 13:26:53;;;;;;;0.55;0.50;;;19.90;62.40;;;18.03;42.23;99262.25;10506277;27;96638;-81
2023/04/02 13:32:04;;;;;;;1.05;0.57;;;20.10;61.90;;;18.19;41.25;99266.88;10512012;27;97125;-81
2023/04/02 13:37:11;;;;;;;0.60;0.40;;;20.30;59.70;;;18.35;41.43;99273.34;10535613;27;96456;-80
2023/04/02 13:42:16;;;;;;;2.80;2.55;;;20.20;60.40;;;18.54;41.49;99268.59;10516194;27;96805;-81
2023/04/02 13:47:20;;;;;;;1.48;0.77;;;20.60;60.70;;;18.33;41.23;99276.28;10519328;27;96574;-81
2023/04/02 13:52:23;;;;;;;1.02;0.57;;;20.50;59.40;;;18.12;41.28;99272.41;10508803;27;97517;-80
2023/04/02 13:57:26;;;;;;;0.68;0.57;;;20.30;59.20;;;18.15;42.25;99269.22;10478521;27;96493;-80
2023/04/02 14:02:29;;;;;;;3.53;0.60;;;20.30;60.00;;;18.33;41.19;99259.31;10498791;27;96653;-80
2023/04/02 14:08:07;;;;;;;0.68;0.52;;;20.50;59.30;;;18.19;40.36;99264.19;10509052;27;96489;-81
2023/04/02 14:13:25;;;;;;;2.38;1.20;;;20.30;58.30;;;17.63;43.81;99279.97;10492277;27;96341;-81
2023/04/02 14:19:03;;;;;;;1.50;1.08;;;19.70;61.30;;;17.12;45.66;99294.91;10493005;27;97464;-80
2023/04/02 14:24:37;;;;;;;2.03;1.35;;;19.10;63.30;;;16.41;48.02;99316.41;10475469;27;96639;-80
2023/04/02 14:30:08;;;;;;;1.63;1.20;;;18.10;66.40;;;15.58;49.47;99346.41;10516447;27;96586;-80
2023/04/02 14:35:44;;;;;;;1.90;0.90;;;17.10;68.60;;;14.66;50.41;99352.28;10515173;27;96607;-79
2023/04/02 14:40:55;;;;;;;2.63;1.60;;;16.30;70.00;;;14.04;53.16;99356.44;10492260;27;96528;-79
2023/04/02 14:46:00;;;;;;;5.25;3.65;;;15.50;72.30;;;13.51;57.64;99371.75;10499095;27;96811;-80
2023/04/02 14:51:33;;;;;;;8.07;4.47;;;15.00;76.90;;;12.82;65.99;99386.22;10504978;27;96585;-80
2023/04/02 14:56:58;;;;;;;4.23;2.37;;;14.30;86.30;;;12.10;70.98;99411.59;10508807;27;97635;-80
2023/04/02 15:02:13;;;;;;;5.17;3.27;;;13.60;91.30;;;11.61;73.43;99422.31;10500412;27;96553;-80
2023/04/02 15:07:24;;;;;;;6.33;4.47;;;13.10;93.30;;;11.04;77.95;99407.31;10506726;27;98106;-80
2023/04/02 15:12:36;;;;;;;6.93;6.22;;;12.60;95.00;;;10.69;81.35;99409.81;10492804;27;96654;-80
2023/04/02 15:17:38;;;;;;;;;;;12.20;97.70;;;10.48;83.91;99407.91;10509355;27;96604;-80
2023/04/02 15:22:54;;;;;;;10.70;5.73;;;12.00;99.90;;;10.39;84.75;99412.53;10483051;27;98206;-80
2023/04/02 15:27:57;;;;;;;16.43;8.70;;;11.90;99.90;;;10.37;85.26;99403.06;10458495;27;96600;-80
2023/04/02 15:33:27;;;;;;;12.20;7.47;;;11.80;99.90;;;10.39;86.32;99399.25;10474033;27;98391;-80
2023/04/02 15:38:52;;;;;;;9.27;6.90;;;11.80;99.90;;;10.48;87.74;99399.13;10441499;27;96676;-80
2023/04/02 15:44:07;;;;;;;4.60;3.97;;;11.90;99.90;;;10.65;87.81;99397.91;10449294;27;96768;-80
2023/04/02 15:49:45;;;;;;;3.13;2.33;;;12.10;99.90;;;11.13;88.32;99395.50;10470797;27;96631;-80
2023/04/02 15:55:19;;;;;;;6.63;4.37;;;12.50;99.90;;;11.77;86.37;99390.09;10449907;27;97512;-80
2023/04/02 16:01:07;;;;;;;6.43;5.78;;;13.20;99.90;;;12.85;85.89;99391.19;10458780;27;98641;-81
2023/04/02 16:06:53;;;;;;;3.22;2.30;;;14.20;99.90;;;13.45;77.60;99388.59;10453775;27;96854;-80
2023/04/02 16:12:30;;;;;;;6.40;4.50;;;14.90;99.90;;;13.59;76.33;99396.38;10447915;27;97287;-80
2023/04/02 16:17:42;;;;;;;4.00;3.10;;;15.00;99.90;;;13.48;74.55;99413.00;10407050;27;97654;-80
2023/04/02 16:22:55;;;;;;;3.90;3.08;;;14.90;99.90;;;13.39;75.35;99419.59;10445277;27;98413;-80
2023/04/02 16:28:29;;;;;;;7.75;4.68;;;14.70;99.90;;;13.17;73.53;99426.09;10501844;27;97641;-80
2023/04/02 16:33:50;;;;;;;4.68;2.90;;;14.60;99.90;;;12.91;73.52;99435.69;10509142;27;97718;-80
2023/04/02 16:39:31;;;;;;;4.10;2.47;;;14.30;99.90;;;12.75;74.06;99444.06;10501818;27;96661;-79
2023/04/02 16:45:00;;;;;;;2.77;1.80;;;14.10;99.90;;;12.50;70.57;99449.91;10501226;27;97984;-79
2023/04/02 16:50:28;;;;;;;2.67;1.57;;;13.90;99.90;;;12.24;69.07;99461.28;10474173;27;97334;-79
2023/04/02 16:56:11;;;;;;;1.03;0.83;;;13.60;98.70;;;11.83;67.75;99469.19;10499349;27;96648;-79
2023/04/02 17:01:36;;;;;;;4.77;2.10;;;13.30;97.60;;;11.51;67.65;99475.84;10486128;27;96646;-79
2023/04/02 17:06:54;;;;;;;1.40;0.70;;;13.00;97.40;;;11.17;67.54;99480.03;10498515;27;96586;-79
2023/04/02 17:12:12;;;;;;;2.07;0.90;;;12.70;97.00;;;10.84;67.23;99481.50;10509633;27;97441;-79
2023/04/02 17:17:16;;;;;;;1.13;0.70;;;12.30;96.60;;;10.57;67.29;99497.13;10498682;27;98935;-79
2023/04/02 17:22:21;;;;;;;2.73;1.67;;;12.10;96.40;;;10.33;68.09;99497.44;10503175;27;97486;-79
2023/04/02 17:27:42;;;;;;;2.27;1.20;;;11.80;96.70;;;10.05;67.46;99505.97;10477886;27;98739;-79
2023/04/02 17:32:45;;;;;;;1.52;0.98;;;11.60;96.50;;;9.84;67.82;99504.03;10480071;27;96613;-77
2023/04/02 17:38:24;;;;;;;1.60;1.00;;;11.30;96.40;;;9.64;67.73;99516.13;10501398;27;98323;-77
2023/04/02 17:43:51;;;;;;;11.67;4.93;;;11.10;96.30;;;9.46;67.41;99526.22;10476609;27;97954;-77
2023/04/02 17:49:36;;;;;;;2.97;1.70;;;11.00;96.00;;;9.30;68.11;99535.13;10498601;27;96601;-77
2023/04/02 17:55:42;;;;;;;3.43;1.80;;;10.80;96.50;;;9.11;68.08;99552.28;10505937;27;97972;-77
2023/04/02 18:01:08;;;;;;;3.20;1.80;;;10.60;96.00;;;8.99;68.02;99564.28;10433299;27;98088;-77
2023/04/02 18:06:34;;;;;;;2.57;1.77;;;10.50;96.00;;;8.87;68.48;99576.25;10499070;27;96655;-80
2023/04/02 18:11:39;;;;;;;3.03;1.73;;;10.40;96.30;;;8.78;68.18;99589.53;10489768;27;97244;-81
2023/04/02 18:16:45;;;;;;;3.53;1.87;;;10.30;96.20;;;8.76;68.26;99596.84;10503119;27;97271;-81
2023/04/02 18:22:01;;;;;;;10.57;5.27;;;10.20;96.30;;;8.77;67.95;99616.22;10526782;27;97027;-81
2023/04/02 18:27:33;;;;;;;24.80;9.30;;;10.20;96.20;;;8.78;67.67;99642.53;10504163;27;96565;-81
2023/04/02 18:33:07;;;;;;;4.40;2.53;;;10.20;96.00;;;8.77;67.37;99653.28;10494449;27;98765;-81
2023/04/02 18:38:28;;;;;;;6.57;3.27;;;10.20;95.90;;;8.74;67.74;99657.09;10487191;27;98136;-81
2023/04/02 18:43:45;;;;;;;4.40;2.40;;;10.20;95.90;;;8.71;67.11;99672.50;10477937;27;96856;-81
2023/04/02 18:49:33;;;;;;;6.77;2.80;;;10.20;95.80;;;8.68;66.16;99675.50;10500421;27;99262;-81
2023/04/02 18:55:29;;;;;;;15.23;7.73;;;10.20;95.10;;;8.61;66.23;99683.28;10506744;27;97468;-81
2023/04/02 19:00:38;;;;;;;3.07;2.00;;;10.10;95.00;;;8.54;65.40;99699.00;10459947;27;98959;-81
2023/04/02 19:05:53;;;;;;;4.50;2.43;;;10.00;94.70;;;8.50;65.54;99710.94;10471781;27;98375;-81
2023/04/02 19:11:17;;;;;;;3.83;2.07;;;10.00;94.50;;;8.42;64.78;99710.94;10521469;27;99022;-81
2023/04/02 19:17:06;;;;;;;3.17;1.87;;;10.00;94.30;;;8.36;65.42;99716.06;10491698;27;98170;-81
2023/04/02 19:22:43;;;;;;;4.83;2.27;;;9.90;94.40;;;8.28;65.53;99723.00;10459388;27;96682;-80
2023/04/02 19:28:06;;;;;;;4.57;2.53;;;9.80;94.30;;;8.23;65.68;99727.94;10486854;27;98238;-81
2023/04/02 19:33:21;;;;;;;3.67;2.33;;;9.80;94.40;;;8.24;65.78;99734.88;10496467;27;98184;-81
2023/04/02 19:38:47;;;;;;;2.93;2.07;;;9.80;94.40;;;8.23;65.93;99738.53;10498632;27;98293;-81
2023/04/02 19:43:50;;;;;;;2.73;1.70;;;9.80;94.50;;;8.26;65.60;99748.78;10482665;27;98530;-80
2023/04/02 19:49:21;;;;;;;2.77;1.80;;;9.80;94.40;;;8.30;66.07;99757.22;10467015;27;98310;-81
2023/04/02 19:54:24;;;;;;;2.40;1.70;;;9.80;94.40;;;8.27;65.44;99758.38;10494922;27;98425;-81
2023/04/02 19:59:27;;;;;;;4.20;2.40;;;9.80;94.40;;;8.21;65.20;99772.25;10522416;27;97407;-81
2023/04/02 20:04:30;;;;;;;2.63;1.70;;;9.80;94.10;;;8.15;65.40;99778.22;10483052;27;96579;-81
2023/04/02 20:09:33;;;;;;;3.07;1.57;;;9.70;94.10;;;8.07;65.42;99791.44;10482617;27;98536;-81
2023/04/02 20:14:36;;;;;;;2.37;1.40;;;9.60;94.20;;;8.01;65.26;99797.38;10502424;27;98699;-80
2023/04/02 20:19:39;;;;;;;1.73;1.40;;;9.50;94.00;;;7.94;65.50;99806.94;10510919;27;97159;-81
2023/04/02 20:24:42;;;;;;;4.00;1.60;;;9.50;94.10;;;7.95;66.11;99813.88;10494918;27;97019;-81
2023/04/02 20:29:47;;;;;;;2.30;1.30;;;9.50;94.20;;;7.95;65.45;99813.88;10505170;27;96635;-81
2023/04/02 20:34:50;;;;;;;2.20;1.40;;;9.50;94.10;;;7.91;65.67;99816.00;10494113;27;96556;-80
2023/04/02 20:39:55;;;;;;;2.57;1.50;;;9.40;94.00;;;7.88;65.95;99834.03;10467333;27;97444;-81
2023/04/02 20:44:58;;;;;;;2.17;1.60;;;9.40;94.10;;;7.84;66.37;99837.97;10493224;27;97218;-81
2023/04/02 20:50:01;;;;;;;2.77;1.50;;;9.40;94.30;;;7.78;66.29;99845.56;10521469;27;96547;-81
2023/04/02 20:55:05;;;;;;;2.47;1.70;;;9.30;94.20;;;7.75;66.71;99851.19;10488535;27;97532;-81
2023/04/02 21:00:10;;;;;;;3.33;1.90;;;9.30;94.40;;;7.75;66.61;99867.06;10494044;27;97422;-81
2023/04/02 21:05:13;;;;;;;3.63;2.00;;;9.30;94.40;;;7.76;66.70;99860.78;10479376;27;96520;-81
2023/04/02 21:10:17;;;;;;;4.53;1.63;;;9.30;94.50;;;7.74;66.54;99873.34;10507670;27;98697;-81
2023/04/02 21:15:20;;;;;;;2.23;1.50;;;9.30;94.50;;;7.69;66.70;99878.25;10510918;27;97432;-81
2023/04/02 21:20:25;;;;;;;2.43;1.73;;;9.20;94.70;;;7.69;66.85;99890.66;10516598;27;96777;-80
2023/04/02 21:25:28;;;;;;;2.43;1.50;;;9.20;94.50;;;7.67;66.39;99898.72;10516031;27;97825;-80
2023/04/02 21:30:32;;;;;;;2.53;1.67;;;9.20;94.40;;;7.66;66.30;99905.00;10471960;27;97469;-80
2023/04/02 21:35:34;;;;;;;2.63;1.73;;;9.20;94.30;;;7.63;66.59;99900.03;10507657;27;96671;-80
2023/04/02 21:40:38;;;;;;;2.73;1.93;;;9.20;94.30;;;7.59;66.53;99903.16;10502307;27;97989;-81
2023/04/02 21:45:41;;;;;;;3.33;2.17;;;9.10;94.30;;;7.56;66.12;99906.94;10502695;27;96613;-81
2023/04/02 21:50:45;;;;;;;3.10;2.30;;;9.10;94.10;;;7.49;65.40;99917.28;10511209;27;97519;-81
2023/04/02 21:55:47;;;;;;;3.27;2.20;;;9.10;93.70;;;7.41;65.49;99921.69;10522488;27;96609;-81
2023/04/02 22:00:50;;;;;;;4.13;2.80;;;9.00;93.70;;;7.30;64.95;99922.78;10480011;27;96795;-82
2023/04/02 22:06:21;;;;;;;4.20;2.47;;;8.90;93.70;;;7.22;65.45;99928.00;10504194;27;96633;-81